Time,TemperatureF,DewpointF,PressureIn,WindDirection,WindDirectionDegrees,WindSpeedMPH,WindSpeedGustMPH,Humidity,HourlyPrecipIn,Conditions,Clouds,dailyrainin,SoftwareType,DateUTC
2013-11-15 00:01:00,34.0,31.0,-100.00,South,184,1.0,2.0,88,0.00,,,0.00,,2013-11-15 07:01:00,
2013-11-15 00:21:00,33.0,31.0,-100.00,SE,141,3.0,4.0,90,0.00,,,0.00,,2013-11-15 07:21:00,
2013-11-15 00:32:00,33.0,31.0,-100.00,SE,141,3.0,4.0,90,0.00,,,0.00,,2013-11-15 07:32:00,
2013-11-15 00:52:00,38.0,31.0,-100.00,South,175,2.0,4.0,74,0.00,,,0.00,,2013-11-15 07:52:00,
2013-11-15 01:01:00,38.0,31.0,-100.00,South,175,2.0,4.0,74,0.00,,,0.00,,2013-11-15 08:01:00,
2013-11-15 02:53:00,38.0,30.0,-100.00,North,4,2.0,3.0,73,0.00,,,0.00,,2013-11-15 09:53:00,
2013-11-15 03:03:00,38.0,30.0,-100.00,North,4,2.0,3.0,73,0.00,,,0.00,,2013-11-15 10:03:00,
2013-11-15 03:22:00,38.0,33.0,-100.00,West,263,3.0,4.0,79,0.00,,,0.00,,2013-11-15 10:22:00,
2013-11-15 03:33:00,38.0,33.0,-100.00,West,263,3.0,4.0,79,0.00,,,0.00,,2013-11-15 10:33:00,
2013-11-15 03:52:00,39.0,32.0,-100.00,West,260,5.0,9.0,76,0.00,,,0.00,,2013-11-15 10:52:00,
2013-11-15 04:02:00,39.0,32.0,-100.00,West,260,5.0,9.0,76,0.00,,,0.00,,2013-11-15 11:02:00,
2013-11-15 04:22:00,38.0,31.0,-100.00,WSW,251,3.0,6.0,74,0.00,,,0.00,,2013-11-15 11:22:00,
2013-11-15 04:33:00,38.0,31.0,-100.00,WSW,251,3.0,6.0,74,0.00,,,0.00,,2013-11-15 11:33:00,
2013-11-15 04:52:00,38.0,32.0,-100.00,WNW,299,1.0,2.0,77,0.00,,,0.00,,2013-11-15 11:52:00,
2013-11-15 05:02:00,38.0,32.0,-100.00,WNW,299,1.0,2.0,77,0.00,,,0.00,,2013-11-15 12:02:00,
2013-11-15 05:21:00,38.0,32.0,-100.00,West,277,6.0,9.0,77,0.00,,,0.00,,2013-11-15 12:21:00,
2013-11-15 05:32:00,38.0,32.0,-100.00,West,277,6.0,9.0,77,0.00,,,0.00,,2013-11-15 12:32:00,
2013-11-15 05:52:00,37.0,33.0,-100.00,WNW,284,6.0,8.0,84,0.00,,,0.00,,2013-11-15 12:52:00,
2013-11-15 06:01:00,37.0,33.0,-100.00,WNW,284,6.0,8.0,84,0.00,,,0.00,,2013-11-15 13:01:00,
2013-11-15 06:21:00,36.0,33.0,-100.00,WNW,292,3.0,5.0,86,0.00,,,0.00,,2013-11-15 13:21:00,
2013-11-15 06:32:00,36.0,33.0,-100.00,WNW,292,3.0,5.0,86,0.00,,,0.00,,2013-11-15 13:32:00,
2013-11-15 06:52:00,36.0,33.0,-100.00,NW,309,4.0,7.0,87,0.00,,,0.00,,2013-11-15 13:52:00,
2013-11-15 07:01:00,36.0,33.0,-100.00,NW,309,4.0,7.0,87,0.00,,,0.00,,2013-11-15 14:01:00,
2013-11-15 07:21:00,36.0,33.0,-100.00,WNW,282,4.0,7.0,88,0.00,,,0.00,,2013-11-15 14:21:00,
2013-11-15 07:32:00,36.0,33.0,-100.00,WNW,282,4.0,7.0,88,0.00,,,0.00,,2013-11-15 14:32:00,
2013-11-15 07:52:00,36.0,32.0,-100.00,WNW,291,5.0,8.0,86,0.00,,,0.00,,2013-11-15 14:52:00,
2013-11-15 08:02:00,36.0,32.0,-100.00,WNW,291,5.0,8.0,86,0.00,,,0.00,,2013-11-15 15:02:00,
2013-11-15 08:21:00,34.0,31.0,-100.00,West,280,8.0,11.0,89,0.00,,,0.00,,2013-11-15 15:21:00,
2013-11-15 08:33:00,34.0,31.0,-100.00,West,280,8.0,11.0,89,0.00,,,0.00,,2013-11-15 15:33:00,
2013-11-15 08:53:00,33.0,31.0,-100.00,West,267,4.0,11.0,90,0.00,,,0.00,,2013-11-15 15:53:00,
2013-11-15 09:03:00,33.0,31.0,-100.00,West,267,4.0,11.0,90,0.00,,,0.00,,2013-11-15 16:03:00,
2013-11-15 09:23:00,33.0,30.0,-100.00,West,264,4.0,10.0,88,0.00,,,0.00,,2013-11-15 16:23:00,
2013-11-15 09:33:00,33.0,30.0,-100.00,West,264,4.0,10.0,88,0.00,,,0.00,,2013-11-15 16:33:00,
2013-11-15 09:53:00,33.0,30.0,-100.00,West,260,6.0,11.0,87,0.00,,,0.00,,2013-11-15 16:53:00,
2013-11-15 10:03:00,33.0,30.0,-100.00,West,260,6.0,11.0,87,0.00,,,0.00,,2013-11-15 17:03:00,
2013-11-15 10:22:00,32.0,29.0,-100.00,West,272,7.0,11.0,89,0.00,,,0.00,,2013-11-15 17:22:00,
2013-11-15 10:32:00,32.0,29.0,-100.00,West,272,7.0,11.0,89,0.00,,,0.00,,2013-11-15 17:32:00,
2013-11-15 10:52:00,33.0,29.0,-100.00,WNW,284,5.0,9.0,87,0.00,,,0.00,,2013-11-15 17:52:00,
2013-11-15 11:02:00,33.0,29.0,-100.00,WNW,284,5.0,9.0,87,0.00,,,0.00,,2013-11-15 18:02:00,
2013-11-15 11:22:00,32.0,29.0,-100.00,WNW,282,3.0,7.0,87,0.00,,,0.00,,2013-11-15 18:22:00,
2013-11-15 11:32:00,32.0,29.0,-100.00,WNW,282,3.0,7.0,87,0.00,,,0.00,,2013-11-15 18:32:00,
2013-11-15 11:52:00,33.0,29.0,-100.00,West,281,6.0,10.0,86,0.00,,,0.00,,2013-11-15 18:52:00,
2013-11-15 12:02:00,33.0,29.0,-100.00,West,281,6.0,10.0,86,0.00,,,0.00,,2013-11-15 19:02:00,
2013-11-15 12:21:00,33.0,29.0,-100.00,WNW,287,8.0,14.0,85,0.00,,,0.00,,2013-11-15 19:21:00,
2013-11-15 12:32:00,33.0,29.0,-100.00,WNW,287,8.0,14.0,85,0.00,,,0.00,,2013-11-15 19:32:00,
2013-11-15 12:52:00,33.0,29.0,-100.00,West,280,5.0,10.0,83,0.00,,,0.00,,2013-11-15 19:52:00,
2013-11-15 13:01:00,33.0,29.0,-100.00,West,280,5.0,10.0,83,0.00,,,0.00,,2013-11-15 20:01:00,
2013-11-15 13:22:00,34.0,28.0,-100.00,WSW,251,6.0,8.0,80,0.00,,,0.00,,2013-11-15 20:22:00,
2013-11-15 13:32:00,34.0,28.0,-100.00,WSW,251,6.0,8.0,80,0.00,,,0.00,,2013-11-15 20:32:00,
2013-11-15 13:52:00,35.0,28.0,-100.00,SW,236,4.0,9.0,76,0.00,,,0.00,,2013-11-15 20:52:00,
2013-11-15 14:02:00,35.0,28.0,-100.00,SW,236,4.0,9.0,76,0.00,,,0.00,,2013-11-15 21:02:00,
2013-11-15 14:21:00,36.0,28.0,-100.00,WSW,243,3.0,9.0,74,0.00,,,0.00,,2013-11-15 21:21:00,
2013-11-15 14:34:00,36.0,28.0,-100.00,WSW,243,3.0,9.0,74,0.00,,,0.00,,2013-11-15 21:34:00,
2013-11-15 14:54:00,38.0,28.0,-100.00,WSW,251,5.0,10.0,66,0.00,,,0.00,,2013-11-15 21:54:00,
2013-11-15 15:03:00,38.0,28.0,-100.00,WSW,251,5.0,10.0,66,0.00,,,0.00,,2013-11-15 22:03:00,
2013-11-15 15:23:00,38.0,27.0,-100.00,West,265,7.0,12.0,65,0.00,,,0.00,,2013-11-15 22:23:00,
2013-11-15 15:33:00,38.0,27.0,-100.00,West,265,7.0,12.0,65,0.00,,,0.00,,2013-11-15 22:33:00,
2013-11-15 15:53:00,39.0,27.0,-100.00,West,264,7.0,9.0,60,0.00,,,0.00,,2013-11-15 22:53:00,
2013-11-15 16:02:00,39.0,27.0,-100.00,West,264,7.0,9.0,60,0.00,,,0.00,,2013-11-15 23:02:00,
2013-11-15 16:22:00,41.0,26.0,-100.00,West,268,6.0,10.0,55,0.00,,,0.00,,2013-11-15 23:22:00,
2013-11-15 16:33:00,41.0,26.0,-100.00,West,268,6.0,10.0,55,0.00,,,0.00,,2013-11-15 23:33:00,
2013-11-15 16:52:00,39.0,26.0,-100.00,WSW,247,4.0,7.0,58,0.00,,,0.00,,2013-11-15 23:52:00,
2013-11-15 17:03:00,39.0,26.0,-100.00,WSW,247,4.0,7.0,58,0.00,,,0.00,,2013-11-16 00:03:00,
2013-11-15 17:22:00,39.0,26.0,-100.00,WSW,253,3.0,6.0,59,0.00,,,0.00,,2013-11-16 00:22:00,
2013-11-15 17:32:00,39.0,26.0,-100.00,WSW,253,3.0,6.0,59,0.00,,,0.00,,2013-11-16 00:32:00,
2013-11-15 17:52:00,38.0,26.0,-100.00,WSW,248,4.0,6.0,60,0.00,,,0.00,,2013-11-16 00:52:00,
2013-11-15 18:01:00,38.0,26.0,-100.00,WSW,248,4.0,6.0,60,0.00,,,0.00,,2013-11-16 01:01:00,
2013-11-15 18:21:00,37.0,26.0,-100.00,SW,227,4.0,6.0,62,0.00,,,0.00,,2013-11-16 01:21:00,
2013-11-15 18:32:00,37.0,26.0,-100.00,SW,227,4.0,6.0,62,0.00,,,0.00,,2013-11-16 01:32:00,
2013-11-15 18:52:00,37.0,26.0,-100.00,SW,216,4.0,7.0,64,0.00,,,0.00,,2013-11-16 01:52:00,
2013-11-15 19:02:00,37.0,26.0,-100.00,SW,216,4.0,7.0,64,0.00,,,0.00,,2013-11-16 02:02:00,
2013-11-15 19:22:00,37.0,25.0,-100.00,SSW,200,6.0,10.0,62,0.00,,,0.00,,2013-11-16 02:22:00,
2013-11-15 19:32:00,37.0,25.0,-100.00,SSW,200,6.0,10.0,62,0.00,,,0.00,,2013-11-16 02:32:00,
2013-11-15 19:52:00,36.0,25.0,-100.00,South,188,7.0,10.0,65,0.00,,,0.00,,2013-11-16 02:52:00,
2013-11-15 20:02:00,36.0,25.0,-100.00,South,188,7.0,10.0,65,0.00,,,0.00,,2013-11-16 03:02:00,
2013-11-15 20:22:00,36.0,25.0,-100.00,South,185,9.0,12.0,62,0.00,,,0.00,,2013-11-16 03:22:00,
2013-11-15 20:34:00,36.0,25.0,-100.00,South,185,9.0,12.0,62,0.00,,,0.00,,2013-11-16 03:34:00,
2013-11-15 20:55:00,37.0,24.0,-100.00,SSW,199,10.0,13.0,60,0.00,,,0.00,,2013-11-16 03:55:00,
2013-11-15 21:04:00,37.0,24.0,-100.00,SSW,199,10.0,13.0,60,0.00,,,0.00,,2013-11-16 04:04:00,
2013-11-15 21:23:00,37.0,24.0,-100.00,SSW,192,11.0,13.0,60,0.00,,,0.00,,2013-11-16 04:23:00,
2013-11-15 21:34:00,37.0,24.0,-100.00,SSW,192,11.0,13.0,60,0.00,,,0.00,,2013-11-16 04:34:00,
2013-11-15 21:53:00,36.0,24.0,-100.00,SSW,200,9.0,12.0,60,0.00,,,0.00,,2013-11-16 04:53:00,
2013-11-15 22:03:00,36.0,24.0,-100.00,SSW,200,9.0,12.0,60,0.00,,,0.00,,2013-11-16 05:03:00,
2013-11-15 22:23:00,36.0,24.0,-100.00,SSW,200,10.0,14.0,61,0.00,,,0.00,,2013-11-16 05:23:00,
2013-11-15 22:34:00,36.0,24.0,-100.00,SSW,200,10.0,14.0,61,0.00,,,0.00,,2013-11-16 05:34:00,
2013-11-15 22:52:00,37.0,25.0,-100.00,South,184,11.0,14.0,62,0.00,,,0.00,,2013-11-16 05:52:00,
2013-11-15 23:02:00,37.0,25.0,-100.00,South,184,11.0,14.0,62,0.00,,,0.00,,2013-11-16 06:02:00,
2013-11-15 23:22:00,37.0,26.0,-100.00,SSW,193,10.0,12.0,63,0.00,,,0.00,,2013-11-16 06:22:00,
2013-11-15 23:32:00,37.0,26.0,-100.00,SSW,193,10.0,12.0,63,0.00,,,0.00,,2013-11-16 06:32:00,
2013-11-15 23:52:00,37.0,27.0,-100.00,SSW,192,12.0,15.0,68,0.00,,,0.00,,2013-11-16 06:52:00,